sensor_id;sensor_type;location;lat;lon;timestamp;temperature;humidity
10133;DHT22;5106;50.926;7.080;2023-07-09T00:02:24;21.40;76.60
10133;DHT22;5106;50.926;7.080;2023-07-09T00:04:50;21.30;76.70
10133;DHT22;5106;50.926;7.080;2023-07-09T00:07:30;21.30;76.70
10133;DHT22;5106;50.926;7.080;2023-07-09T00:09:56;21.20;76.80
10133;DHT22;5106;50.926;7.080;2023-07-09T00:12:22;21.20;76.90
10133;DHT22;5106;50.926;7.080;2023-07-09T00:14:48;21.20;76.70
10133;DHT22;5106;50.926;7.080;2023-07-09T00:17:27;21.30;76.70
10133;DHT22;5106;50.926;7.080;2023-07-09T00:19:53;21.30;76.80
10133;DHT22;5106;50.926;7.080;2023-07-09T00:22:20;21.30;76.60
10133;DHT22;5106;50.926;7.080;2023-07-09T00:24:48;21.20;76.60
10133;DHT22;5106;50.926;7.080;2023-07-09T00:27:17;21.20;76.90
10133;DHT22;5106;50.926;7.080;2023-07-09T00:29:44;21.10;77.10
10133;DHT22;5106;50.926;7.080;2023-07-09T00:32:17;21.00;77.30
10133;DHT22;5106;50.926;7.080;2023-07-09T00:34:46;21.00;77.30
10133;DHT22;5106;50.926;7.080;2023-07-09T00:37:17;20.90;77.40
10133;DHT22;5106;50.926;7.080;2023-07-09T00:39:44;20.90;77.50
10133;DHT22;5106;50.926;7.080;2023-07-09T00:42:15;20.90;77.60
10133;DHT22;5106;50.926;7.080;2023-07-09T00:44:44;20.80;77.50
10133;DHT22;5106;50.926;7.080;2023-07-09T00:47:22;20.80;77.50
10133;DHT22;5106;50.926;7.080;2023-07-09T00:49:49;20.80;77.40
10133;DHT22;5106;50.926;7.080;2023-07-09T00:52:27;20.70;77.40
10133;DHT22;5106;50.926;7.080;2023-07-09T00:54:56;20.70;77.40
10133;DHT22;5106;50.926;7.080;2023-07-09T00:57:25;20.70;77.40
10133;DHT22;5106;50.926;7.080;2023-07-09T00:59:55;20.70;77.50
10133;DHT22;5106;50.926;7.080;2023-07-09T01:02:22;20.60;77.60
10133;DHT22;5106;50.926;7.080;2023-07-09T01:04:58;20.60;77.60
10133;DHT22;5106;50.926;7.080;2023-07-09T01:07:27;20.60;77.70
10133;DHT22;5106;50.926;7.080;2023-07-09T01:09:53;20.60;77.80
10133;DHT22;5106;50.926;7.080;2023-07-09T01:12:19;20.60;77.80
10133;DHT22;5106;50.926;7.080;2023-07-09T01:14:47;20.50;77.90
10133;DHT22;5106;50.926;7.080;2023-07-09T01:17:14;20.50;78.10
10133;DHT22;5106;50.926;7.080;2023-07-09T01:19:42;20.40;78.10
10133;DHT22;5106;50.926;7.080;2023-07-09T01:22:14;20.40;78.30
10133;DHT22;5106;50.926;7.080;2023-07-09T01:27:24;20.30;78.30
10133;DHT22;5106;50.926;7.080;2023-07-09T01:29:52;20.30;78.30
10133;DHT22;5106;50.926;7.080;2023-07-09T01:32:20;20.30;78.20
10133;DHT22;5106;50.926;7.080;2023-07-09T01:34:49;20.20;78.20
10133;DHT22;5106;50.926;7.080;2023-07-09T01:37:18;20.20;78.30
10133;DHT22;5106;50.926;7.080;2023-07-09T01:39:47;20.20;78.30
10133;DHT22;5106;50.926;7.080;2023-07-09T01:42:15;20.10;78.50
10133;DHT22;5106;50.926;7.080;2023-07-09T01:44:41;20.10;78.70
10133;DHT22;5106;50.926;7.080;2023-07-09T01:47:06;20.00;78.70
10133;DHT22;5106;50.926;7.080;2023-07-09T01:49:32;20.00;78.70
10133;DHT22;5106;50.926;7.080;2023-07-09T01:51:59;20.00;78.60
10133;DHT22;5106;50.926;7.080;2023-07-09T01:54:31;20.10;78.60
10133;DHT22;5106;50.926;7.080;2023-07-09T01:57:18;20.00;78.50
10133;DHT22;5106;50.926;7.080;2023-07-09T01:59:49;20.00;78.60
10133;DHT22;5106;50.926;7.080;2023-07-09T02:02:16;20.00;78.80
10133;DHT22;5106;50.926;7.080;2023-07-09T02:04:51;19.90;78.90
10133;DHT22;5106;50.926;7.080;2023-07-09T02:07:18;19.90;78.90
10133;DHT22;5106;50.926;7.080;2023-07-09T02:09:44;19.90;78.90
10133;DHT22;5106;50.926;7.080;2023-07-09T02:12:11;19.90;79.00
10133;DHT22;5106;50.926;7.080;2023-07-09T02:14:38;19.80;79.10
10133;DHT22;5106;50.926;7.080;2023-07-09T02:17:04;19.80;79.10
10133;DHT22;5106;50.926;7.080;2023-07-09T02:19:30;19.70;79.00
10133;DHT22;5106;50.926;7.080;2023-07-09T02:21:56;19.70;79.10
10133;DHT22;5106;50.926;7.080;2023-07-09T02:24:23;19.70;79.20
10133;DHT22;5106;50.926;7.080;2023-07-09T02:27:00;19.70;79.20
10133;DHT22;5106;50.926;7.080;2023-07-09T02:29:27;19.70;79.30
10133;DHT22;5106;50.926;7.080;2023-07-09T02:31:54;19.70;79.30
10133;DHT22;5106;50.926;7.080;2023-07-09T02:34:20;19.60;79.30
10133;DHT22;5106;50.926;7.080;2023-07-09T02:36:46;19.60;79.40
10133;DHT22;5106;50.926;7.080;2023-07-09T02:39:13;19.60;79.40
10133;DHT22;5106;50.926;7.080;2023-07-09T02:41:40;19.60;79.50
10133;DHT22;5106;50.926;7.080;2023-07-09T02:44:06;19.50;79.50
10133;DHT22;5106;50.926;7.080;2023-07-09T02:46:32;19.50;79.50
10133;DHT22;5106;50.926;7.080;2023-07-09T02:48:58;19.50;79.50
10133;DHT22;5106;50.926;7.080;2023-07-09T02:51:24;19.50;79.50
10133;DHT22;5106;50.926;7.080;2023-07-09T02:53:55;19.40;79.60
10133;DHT22;5106;50.926;7.080;2023-07-09T02:56:21;19.40;79.60
10133;DHT22;5106;50.926;7.080;2023-07-09T02:58:47;19.40;79.60
10133;DHT22;5106;50.926;7.080;2023-07-09T03:01:12;19.40;79.50
10133;DHT22;5106;50.926;7.080;2023-07-09T03:03:38;19.40;79.50
10133;DHT22;5106;50.926;7.080;2023-07-09T03:06:05;19.40;79.60
10133;DHT22;5106;50.926;7.080;2023-07-09T03:08:30;19.30;79.70
10133;DHT22;5106;50.926;7.080;2023-07-09T03:10:56;19.30;79.80
10133;DHT22;5106;50.926;7.080;2023-07-09T03:13:22;19.30;79.80
10133;DHT22;5106;50.926;7.080;2023-07-09T03:15:55;19.30;79.70
10133;DHT22;5106;50.926;7.080;2023-07-09T03:18:21;19.30;79.80
10133;DHT22;5106;50.926;7.080;2023-07-09T03:20:46;19.20;79.80
10133;DHT22;5106;50.926;7.080;2023-07-09T03:23:12;19.20;79.90
10133;DHT22;5106;50.926;7.080;2023-07-09T03:25:41;19.20;79.80
10133;DHT22;5106;50.926;7.080;2023-07-09T03:28:07;19.20;79.90
10133;DHT22;5106;50.926;7.080;2023-07-09T03:30:33;19.20;80.00
10133;DHT22;5106;50.926;7.080;2023-07-09T03:32:58;19.20;79.90
10133;DHT22;5106;50.926;7.080;2023-07-09T03:35:25;19.20;79.90
10133;DHT22;5106;50.926;7.080;2023-07-09T03:37:51;19.20;80.00
10133;DHT22;5106;50.926;7.080;2023-07-09T03:40:21;19.20;80.00
10133;DHT22;5106;50.926;7.080;2023-07-09T03:42:47;19.20;79.90
10133;DHT22;5106;50.926;7.080;2023-07-09T03:45:12;19.20;80.00
10133;DHT22;5106;50.926;7.080;2023-07-09T03:47:38;19.20;80.00
10133;DHT22;5106;50.926;7.080;2023-07-09T03:50:08;19.20;80.10
10133;DHT22;5106;50.926;7.080;2023-07-09T03:52:34;19.20;80.10
10133;DHT22;5106;50.926;7.080;2023-07-09T03:55:00;19.20;80.00
10133;DHT22;5106;50.926;7.080;2023-07-09T03:57:27;19.20;80.00
10133;DHT22;5106;50.926;7.080;2023-07-09T03:59:53;19.20;80.10
10133;DHT22;5106;50.926;7.080;2023-07-09T04:02:18;19.20;80.10
10133;DHT22;5106;50.926;7.080;2023-07-09T04:04:44;19.20;80.20
10133;DHT22;5106;50.926;7.080;2023-07-09T04:07:10;19.20;80.20
10133;DHT22;5106;50.926;7.080;2023-07-09T04:09:35;19.20;80.30
10133;DHT22;5106;50.926;7.080;2023-07-09T04:12:02;19.20;80.30
10133;DHT22;5106;50.926;7.080;2023-07-09T04:14:28;19.20;80.30
10133;DHT22;5106;50.926;7.080;2023-07-09T04:16:54;19.20;80.30
10133;DHT22;5106;50.926;7.080;2023-07-09T04:19:20;19.20;80.40
10133;DHT22;5106;50.926;7.080;2023-07-09T04:21:45;19.20;80.40
10133;DHT22;5106;50.926;7.080;2023-07-09T04:24:11;19.20;80.30
10133;DHT22;5106;50.926;7.080;2023-07-09T04:26:36;19.20;80.40
10133;DHT22;5106;50.926;7.080;2023-07-09T04:29:04;19.30;80.30
10133;DHT22;5106;50.926;7.080;2023-07-09T04:31:31;19.30;80.40
10133;DHT22;5106;50.926;7.080;2023-07-09T04:33:57;19.30;80.40
10133;DHT22;5106;50.926;7.080;2023-07-09T04:36:23;19.30;80.30
10133;DHT22;5106;50.926;7.080;2023-07-09T04:38:48;19.30;80.50
10133;DHT22;5106;50.926;7.080;2023-07-09T04:41:14;19.30;80.40
10133;DHT22;5106;50.926;7.080;2023-07-09T04:43:39;19.30;80.40
10133;DHT22;5106;50.926;7.080;2023-07-09T04:46:05;19.30;80.50
10133;DHT22;5106;50.926;7.080;2023-07-09T04:48:31;19.30;80.50
10133;DHT22;5106;50.926;7.080;2023-07-09T04:50:56;19.30;80.40
10133;DHT22;5106;50.926;7.080;2023-07-09T04:53:22;19.30;80.50
10133;DHT22;5106;50.926;7.080;2023-07-09T04:55:49;19.30;80.50
10133;DHT22;5106;50.926;7.080;2023-07-09T04:58:16;19.30;80.50
10133;DHT22;5106;50.926;7.080;2023-07-09T05:00:42;19.30;80.50
10133;DHT22;5106;50.926;7.080;2023-07-09T05:03:08;19.40;80.50
10133;DHT22;5106;50.926;7.080;2023-07-09T05:05:33;19.40;80.50
10133;DHT22;5106;50.926;7.080;2023-07-09T05:07:59;19.40;80.50
10133;DHT22;5106;50.926;7.080;2023-07-09T05:10:25;19.40;80.50
10133;DHT22;5106;50.926;7.080;2023-07-09T05:12:53;19.50;80.40
10133;DHT22;5106;50.926;7.080;2023-07-09T05:15:20;19.50;80.40
10133;DHT22;5106;50.926;7.080;2023-07-09T05:17:46;19.60;80.50
10133;DHT22;5106;50.926;7.080;2023-07-09T05:20:13;19.70;80.50
10133;DHT22;5106;50.926;7.080;2023-07-09T05:22:39;19.70;80.50
10133;DHT22;5106;50.926;7.080;2023-07-09T05:25:05;19.70;80.50
10133;DHT22;5106;50.926;7.080;2023-07-09T05:27:30;19.80;80.40
10133;DHT22;5106;50.926;7.080;2023-07-09T05:29:56;19.90;80.40
10133;DHT22;5106;50.926;7.080;2023-07-09T05:32:22;19.90;80.30
10133;DHT22;5106;50.926;7.080;2023-07-09T05:34:47;20.00;80.30
10133;DHT22;5106;50.926;7.080;2023-07-09T05:37:13;20.10;80.10
10133;DHT22;5106;50.926;7.080;2023-07-09T05:39:38;20.10;80.00
10133;DHT22;5106;50.926;7.080;2023-07-09T05:42:04;20.20;79.80
10133;DHT22;5106;50.926;7.080;2023-07-09T05:44:30;20.30;79.60
10133;DHT22;5106;50.926;7.080;2023-07-09T05:46:55;20.40;79.40
10133;DHT22;5106;50.926;7.080;2023-07-09T05:49:21;20.40;79.30
10133;DHT22;5106;50.926;7.080;2023-07-09T05:51:47;20.60;79.00
10133;DHT22;5106;50.926;7.080;2023-07-09T05:54:12;20.60;78.90
10133;DHT22;5106;50.926;7.080;2023-07-09T05:56:38;20.70;78.80
10133;DHT22;5106;50.926;7.080;2023-07-09T05:59:04;20.80;78.80
10133;DHT22;5106;50.926;7.080;2023-07-09T06:01:29;20.90;78.80
10133;DHT22;5106;50.926;7.080;2023-07-09T06:03:55;21.00;78.70
10133;DHT22;5106;50.926;7.080;2023-07-09T06:06:21;21.10;78.70
10133;DHT22;5106;50.926;7.080;2023-07-09T06:08:47;21.20;78.60
10133;DHT22;5106;50.926;7.080;2023-07-09T06:11:13;21.30;78.50
10133;DHT22;5106;50.926;7.080;2023-07-09T06:13:39;21.40;78.40
10133;DHT22;5106;50.926;7.080;2023-07-09T06:16:04;21.50;78.10
10133;DHT22;5106;50.926;7.080;2023-07-09T06:18:30;21.60;77.70
10133;DHT22;5106;50.926;7.080;2023-07-09T06:20:58;21.70;77.30
10133;DHT22;5106;50.926;7.080;2023-07-09T06:23:24;21.80;77.20
10133;DHT22;5106;50.926;7.080;2023-07-09T06:25:49;22.00;76.90
10133;DHT22;5106;50.926;7.080;2023-07-09T06:28:18;22.10;76.70
10133;DHT22;5106;50.926;7.080;2023-07-09T06:30:44;22.20;76.70
10133;DHT22;5106;50.926;7.080;2023-07-09T06:33:12;22.30;76.50
10133;DHT22;5106;50.926;7.080;2023-07-09T06:35:38;22.40;76.20
10133;DHT22;5106;50.926;7.080;2023-07-09T06:38:05;22.50;76.10
10133;DHT22;5106;50.926;7.080;2023-07-09T06:40:31;22.70;75.60
10133;DHT22;5106;50.926;7.080;2023-07-09T06:42:56;22.80;74.90
10133;DHT22;5106;50.926;7.080;2023-07-09T06:45:23;22.90;75.00
10133;DHT22;5106;50.926;7.080;2023-07-09T06:47:49;23.00;75.00
10133;DHT22;5106;50.926;7.080;2023-07-09T06:50:15;23.10;74.80
10133;DHT22;5106;50.926;7.080;2023-07-09T06:52:41;23.20;74.60
10133;DHT22;5106;50.926;7.080;2023-07-09T06:55:07;23.30;74.40
10133;DHT22;5106;50.926;7.080;2023-07-09T06:57:33;23.40;74.70
10133;DHT22;5106;50.926;7.080;2023-07-09T06:59:58;23.50;74.80
10133;DHT22;5106;50.926;7.080;2023-07-09T07:02:24;23.60;73.90
10133;DHT22;5106;50.926;7.080;2023-07-09T07:04:50;23.60;73.20
10133;DHT22;5106;50.926;7.080;2023-07-09T07:07:15;23.70;72.90
10133;DHT22;5106;50.926;7.080;2023-07-09T07:09:41;23.80;72.70
10133;DHT22;5106;50.926;7.080;2023-07-09T07:12:07;23.90;72.40
10133;DHT22;5106;50.926;7.080;2023-07-09T07:14:33;24.00;72.00
10133;DHT22;5106;50.926;7.080;2023-07-09T07:16:58;24.20;71.60
10133;DHT22;5106;50.926;7.080;2023-07-09T07:19:24;24.30;71.50
10133;DHT22;5106;50.926;7.080;2023-07-09T07:21:49;24.40;72.70
10133;DHT22;5106;50.926;7.080;2023-07-09T07:24:15;24.50;72.20
10133;DHT22;5106;50.926;7.080;2023-07-09T07:26:40;24.60;71.90
10133;DHT22;5106;50.926;7.080;2023-07-09T07:29:06;24.70;71.10
10133;DHT22;5106;50.926;7.080;2023-07-09T07:31:32;24.80;71.70
10133;DHT22;5106;50.926;7.080;2023-07-09T07:33:57;24.90;71.40
10133;DHT22;5106;50.926;7.080;2023-07-09T07:36:23;24.90;70.80
10133;DHT22;5106;50.926;7.080;2023-07-09T07:39:09;25.00;70.90
10133;DHT22;5106;50.926;7.080;2023-07-09T07:41:35;25.20;70.80
10133;DHT22;5106;50.926;7.080;2023-07-09T07:44:00;25.30;69.50
10133;DHT22;5106;50.926;7.080;2023-07-09T07:46:26;25.40;69.30
10133;DHT22;5106;50.926;7.080;2023-07-09T07:48:52;25.50;69.50
10133;DHT22;5106;50.926;7.080;2023-07-09T07:51:17;25.60;70.20
10133;DHT22;5106;50.926;7.080;2023-07-09T07:53:43;25.70;69.70
10133;DHT22;5106;50.926;7.080;2023-07-09T07:56:09;25.80;69.20
10133;DHT22;5106;50.926;7.080;2023-07-09T07:58:35;25.90;69.20
10133;DHT22;5106;50.926;7.080;2023-07-09T08:01:01;26.00;68.50
10133;DHT22;5106;50.926;7.080;2023-07-09T08:03:26;26.10;68.20
10133;DHT22;5106;50.926;7.080;2023-07-09T08:05:52;26.20;67.80
10133;DHT22;5106;50.926;7.080;2023-07-09T08:08:20;26.30;67.90
10133;DHT22;5106;50.926;7.080;2023-07-09T08:10:46;26.40;68.10
10133;DHT22;5106;50.926;7.080;2023-07-09T08:13:12;26.50;67.10
10133;DHT22;5106;50.926;7.080;2023-07-09T08:15:40;26.70;67.30
10133;DHT22;5106;50.926;7.080;2023-07-09T08:18:05;26.80;67.20
10133;DHT22;5106;50.926;7.080;2023-07-09T08:20:31;26.90;67.60
10133;DHT22;5106;50.926;7.080;2023-07-09T08:22:58;27.00;67.50
10133;DHT22;5106;50.926;7.080;2023-07-09T08:25:24;27.10;68.10
10133;DHT22;5106;50.926;7.080;2023-07-09T08:27:49;27.20;67.70
10133;DHT22;5106;50.926;7.080;2023-07-09T08:30:15;27.30;67.10
10133;DHT22;5106;50.926;7.080;2023-07-09T08:32:41;27.40;66.90
10133;DHT22;5106;50.926;7.080;2023-07-09T08:35:07;27.50;66.90
10133;DHT22;5106;50.926;7.080;2023-07-09T08:37:35;27.60;66.10
10133;DHT22;5106;50.926;7.080;2023-07-09T08:40:01;27.70;65.80
10133;DHT22;5106;50.926;7.080;2023-07-09T08:42:37;27.90;65.50
10133;DHT22;5106;50.926;7.080;2023-07-09T08:48:04;28.10;65.50
10133;DHT22;5106;50.926;7.080;2023-07-09T08:50:43;28.20;66.20
10133;DHT22;5106;50.926;7.080;2023-07-09T08:53:35;28.30;65.10
10133;DHT22;5106;50.926;7.080;2023-07-09T08:56:01;28.50;65.40
10133;DHT22;5106;50.926;7.080;2023-07-09T08:58:31;28.50;65.80
10133;DHT22;5106;50.926;7.080;2023-07-09T09:01:00;28.70;65.60
10133;DHT22;5106;50.926;7.080;2023-07-09T09:03:37;28.80;64.70
10133;DHT22;5106;50.926;7.080;2023-07-09T09:06:16;29.00;64.50
10133;DHT22;5106;50.926;7.080;2023-07-09T09:11:20;29.40;63.30
10133;DHT22;5106;50.926;7.080;2023-07-09T09:13:50;29.50;63.30
10133;DHT22;5106;50.926;7.080;2023-07-09T09:16:30;29.60;62.80
10133;DHT22;5106;50.926;7.080;2023-07-09T09:18:59;29.80;62.90
10133;DHT22;5106;50.926;7.080;2023-07-09T09:21:36;29.90;62.00
10133;DHT22;5106;50.926;7.080;2023-07-09T09:24:14;30.00;61.30
10133;DHT22;5106;50.926;7.080;2023-07-09T09:26:42;30.10;61.30
10133;DHT22;5106;50.926;7.080;2023-07-09T09:29:14;30.20;61.60
10133;DHT22;5106;50.926;7.080;2023-07-09T09:31:41;30.40;61.80
10133;DHT22;5106;50.926;7.080;2023-07-09T09:34:17;30.50;60.90
10133;DHT22;5106;50.926;7.080;2023-07-09T09:36:43;30.70;60.30
10133;DHT22;5106;50.926;7.080;2023-07-09T09:39:09;30.90;60.10
10133;DHT22;5106;50.926;7.080;2023-07-09T09:41:36;31.00;59.90
10133;DHT22;5106;50.926;7.080;2023-07-09T09:44:02;31.20;59.50
10133;DHT22;5106;50.926;7.080;2023-07-09T09:46:31;31.30;59.50
10133;DHT22;5106;50.926;7.080;2023-07-09T09:49:02;31.50;59.60
10133;DHT22;5106;50.926;7.080;2023-07-09T09:51:29;31.60;58.30
10133;DHT22;5106;50.926;7.080;2023-07-09T09:54:01;31.80;58.10
10133;DHT22;5106;50.926;7.080;2023-07-09T09:56:35;31.80;58.90
10133;DHT22;5106;50.926;7.080;2023-07-09T09:59:03;32.00;59.20
10133;DHT22;5106;50.926;7.080;2023-07-09T10:01:35;32.10;61.00
10133;DHT22;5106;50.926;7.080;2023-07-09T10:04:04;32.20;59.70
10133;DHT22;5106;50.926;7.080;2023-07-09T10:06:39;32.40;58.00
10133;DHT22;5106;50.926;7.080;2023-07-09T10:14:51;32.70;55.50
10133;DHT22;5106;50.926;7.080;2023-07-09T10:20:28;33.00;55.70
10133;DHT22;5106;50.926;7.080;2023-07-09T10:23:17;33.10;57.10
10133;DHT22;5106;50.926;7.080;2023-07-09T10:26:11;33.20;53.60
10133;DHT22;5106;50.926;7.080;2023-07-09T10:31:09;33.50;54.10
10133;DHT22;5106;50.926;7.080;2023-07-09T10:37:08;33.70;54.50
10133;DHT22;5106;50.926;7.080;2023-07-09T10:39:59;33.70;53.20
10133;DHT22;5106;50.926;7.080;2023-07-09T10:42:28;33.70;54.50
10133;DHT22;5106;50.926;7.080;2023-07-09T10:45:01;33.80;53.30
10133;DHT22;5106;50.926;7.080;2023-07-09T10:47:30;33.80;53.40
10133;DHT22;5106;50.926;7.080;2023-07-09T10:49:58;33.90;52.60
10133;DHT22;5106;50.926;7.080;2023-07-09T10:52:30;34.10;52.70
10133;DHT22;5106;50.926;7.080;2023-07-09T10:55:21;34.20;52.30
10133;DHT22;5106;50.926;7.080;2023-07-09T10:57:56;34.30;52.40
10133;DHT22;5106;50.926;7.080;2023-07-09T11:00:34;34.50;50.70
10133;DHT22;5106;50.926;7.080;2023-07-09T11:03:05;34.60;51.60
10133;DHT22;5106;50.926;7.080;2023-07-09T11:05:37;34.70;49.60
10133;DHT22;5106;50.926;7.080;2023-07-09T11:08:16;34.70;51.50
10133;DHT22;5106;50.926;7.080;2023-07-09T11:11:09;34.80;49.80
10133;DHT22;5106;50.926;7.080;2023-07-09T11:13:53;34.90;49.30
10133;DHT22;5106;50.926;7.080;2023-07-09T11:16:33;35.00;49.00
10133;DHT22;5106;50.926;7.080;2023-07-09T11:19:04;35.10;49.30
10133;DHT22;5106;50.926;7.080;2023-07-09T11:21:32;35.20;48.30
10133;DHT22;5106;50.926;7.080;2023-07-09T11:24:01;35.20;49.10
10133;DHT22;5106;50.926;7.080;2023-07-09T11:26:34;35.20;50.80
10133;DHT22;5106;50.926;7.080;2023-07-09T11:31:42;35.20;50.60
10133;DHT22;5106;50.926;7.080;2023-07-09T11:34:20;35.30;48.40
10133;DHT22;5106;50.926;7.080;2023-07-09T11:42:28;35.20;47.90
10133;DHT22;5106;50.926;7.080;2023-07-09T11:45:02;35.20;48.80
10133;DHT22;5106;50.926;7.080;2023-07-09T11:47:37;35.20;48.00
10133;DHT22;5106;50.926;7.080;2023-07-09T11:50:20;35.10;47.80
10133;DHT22;5106;50.926;7.080;2023-07-09T11:52:58;35.10;48.10
10133;DHT22;5106;50.926;7.080;2023-07-09T11:55:40;35.10;46.60
10133;DHT22;5106;50.926;7.080;2023-07-09T11:58:09;35.00;47.80
10133;DHT22;5106;50.926;7.080;2023-07-09T12:00:40;35.00;48.20
10133;DHT22;5106;50.926;7.080;2023-07-09T12:03:10;35.00;48.00
10133;DHT22;5106;50.926;7.080;2023-07-09T12:05:37;35.00;47.40
10133;DHT22;5106;50.926;7.080;2023-07-09T12:08:06;35.00;47.90
10133;DHT22;5106;50.926;7.080;2023-07-09T12:10:33;35.00;47.80
10133;DHT22;5106;50.926;7.080;2023-07-09T12:13:00;35.00;49.40
10133;DHT22;5106;50.926;7.080;2023-07-09T12:15:28;34.80;48.60
10133;DHT22;5106;50.926;7.080;2023-07-09T12:20:20;34.60;49.70
10133;DHT22;5106;50.926;7.080;2023-07-09T12:22:46;34.40;48.70
10133;DHT22;5106;50.926;7.080;2023-07-09T12:25:24;34.30;48.80
10133;DHT22;5106;50.926;7.080;2023-07-09T12:27:50;34.10;50.60
10133;DHT22;5106;50.926;7.080;2023-07-09T12:30:16;34.00;51.80
10133;DHT22;5106;50.926;7.080;2023-07-09T12:32:47;33.90;49.60
10133;DHT22;5106;50.926;7.080;2023-07-09T12:35:16;33.80;48.60
10133;DHT22;5106;50.926;7.080;2023-07-09T12:37:43;33.70;49.20
10133;DHT22;5106;50.926;7.080;2023-07-09T12:40:16;33.70;49.10
10133;DHT22;5106;50.926;7.080;2023-07-09T12:42:43;33.60;51.20
10133;DHT22;5106;50.926;7.080;2023-07-09T12:45:15;33.60;50.00
10133;DHT22;5106;50.926;7.080;2023-07-09T12:47:41;33.60;50.40
10133;DHT22;5106;50.926;7.080;2023-07-09T12:52:48;33.40;49.70
10133;DHT22;5106;50.926;7.080;2023-07-09T12:55:25;33.30;49.20
10133;DHT22;5106;50.926;7.080;2023-07-09T12:57:58;33.30;49.50
10133;DHT22;5106;50.926;7.080;2023-07-09T13:00:29;33.20;49.70
10133;DHT22;5106;50.926;7.080;2023-07-09T13:02:58;33.20;49.20
10133;DHT22;5106;50.926;7.080;2023-07-09T13:05:24;33.10;50.10
10133;DHT22;5106;50.926;7.080;2023-07-09T13:07:59;33.10;51.30
10133;DHT22;5106;50.926;7.080;2023-07-09T13:10:30;33.20;49.70
10133;DHT22;5106;50.926;7.080;2023-07-09T13:13:04;33.30;52.00
10133;DHT22;5106;50.926;7.080;2023-07-09T13:15:38;33.40;50.20
10133;DHT22;5106;50.926;7.080;2023-07-09T13:18:06;33.40;51.00
10133;DHT22;5106;50.926;7.080;2023-07-09T13:20:33;33.40;50.40
10133;DHT22;5106;50.926;7.080;2023-07-09T13:23:00;33.40;52.80
10133;DHT22;5106;50.926;7.080;2023-07-09T13:25:26;33.40;51.90
10133;DHT22;5106;50.926;7.080;2023-07-09T13:27:53;33.30;49.90
10133;DHT22;5106;50.926;7.080;2023-07-09T13:30:18;33.30;48.20
10133;DHT22;5106;50.926;7.080;2023-07-09T13:32:46;33.30;48.00
10133;DHT22;5106;50.926;7.080;2023-07-09T13:35:15;33.20;48.40
10133;DHT22;5106;50.926;7.080;2023-07-09T13:37:42;33.20;48.90
10133;DHT22;5106;50.926;7.080;2023-07-09T13:40:11;33.20;50.60
10133;DHT22;5106;50.926;7.080;2023-07-09T13:42:36;33.20;51.20
10133;DHT22;5106;50.926;7.080;2023-07-09T13:45:03;33.10;51.00
10133;DHT22;5106;50.926;7.080;2023-07-09T13:47:29;33.10;49.40
10133;DHT22;5106;50.926;7.080;2023-07-09T13:49:55;33.10;50.00
10133;DHT22;5106;50.926;7.080;2023-07-09T13:52:23;33.00;49.70
10133;DHT22;5106;50.926;7.080;2023-07-09T13:54:50;33.00;49.70
10133;DHT22;5106;50.926;7.080;2023-07-09T13:57:19;32.90;49.90
10133;DHT22;5106;50.926;7.080;2023-07-09T13:59:46;32.80;51.90
10133;DHT22;5106;50.926;7.080;2023-07-09T14:02:20;32.70;49.80
10133;DHT22;5106;50.926;7.080;2023-07-09T14:04:48;32.70;48.60
10133;DHT22;5106;50.926;7.080;2023-07-09T14:07:41;32.40;48.70
10133;DHT22;5106;50.926;7.080;2023-07-09T14:10:11;31.70;51.90
10133;DHT22;5106;50.926;7.080;2023-07-09T14:12:39;31.20;52.40
10133;DHT22;5106;50.926;7.080;2023-07-09T14:15:15;30.90;54.30
10133;DHT22;5106;50.926;7.080;2023-07-09T14:17:41;30.50;57.00
10133;DHT22;5106;50.926;7.080;2023-07-09T14:20:11;30.30;59.70
10133;DHT22;5106;50.926;7.080;2023-07-09T14:22:39;30.00;60.10
10133;DHT22;5106;50.926;7.080;2023-07-09T14:25:05;29.80;61.50
10133;DHT22;5106;50.926;7.080;2023-07-09T14:27:31;29.70;60.70
10133;DHT22;5106;50.926;7.080;2023-07-09T14:29:56;29.50;61.30
10133;DHT22;5106;50.926;7.080;2023-07-09T14:32:31;29.30;62.20
10133;DHT22;5106;50.926;7.080;2023-07-09T14:34:57;29.10;64.80
10133;DHT22;5106;50.926;7.080;2023-07-09T14:37:23;28.60;62.90
10133;DHT22;5106;50.926;7.080;2023-07-09T14:39:49;28.30;64.70
10133;DHT22;5106;50.926;7.080;2023-07-09T14:42:14;28.20;64.60
10133;DHT22;5106;50.926;7.080;2023-07-09T14:44:41;28.30;61.10
10133;DHT22;5106;50.926;7.080;2023-07-09T14:47:13;28.60;59.90
10133;DHT22;5106;50.926;7.080;2023-07-09T14:49:40;28.70;59.40
10133;DHT22;5106;50.926;7.080;2023-07-09T14:52:13;28.70;60.10
10133;DHT22;5106;50.926;7.080;2023-07-09T14:54:39;28.50;62.80
10133;DHT22;5106;50.926;7.080;2023-07-09T14:57:16;28.10;68.40
10133;DHT22;5106;50.926;7.080;2023-07-09T14:59:43;27.50;70.20
10133;DHT22;5106;50.926;7.080;2023-07-09T15:02:31;27.20;70.70
10133;DHT22;5106;50.926;7.080;2023-07-09T15:04:58;26.90;71.00
10133;DHT22;5106;50.926;7.080;2023-07-09T15:07:24;26.80;71.40
10133;DHT22;5106;50.926;7.080;2023-07-09T15:09:56;26.70;71.60
10133;DHT22;5106;50.926;7.080;2023-07-09T15:12:28;26.70;71.60
10133;DHT22;5106;50.926;7.080;2023-07-09T15:15:01;26.70;71.50
10133;DHT22;5106;50.926;7.080;2023-07-09T15:17:27;26.80;71.70
10133;DHT22;5106;50.926;7.080;2023-07-09T15:19:52;26.70;71.50
10133;DHT22;5106;50.926;7.080;2023-07-09T15:22:29;26.60;71.70
10133;DHT22;5106;50.926;7.080;2023-07-09T15:24:56;26.60;71.80
10133;DHT22;5106;50.926;7.080;2023-07-09T15:27:21;26.50;72.00
10133;DHT22;5106;50.926;7.080;2023-07-09T15:29:47;26.50;71.90
10133;DHT22;5106;50.926;7.080;2023-07-09T15:32:13;26.60;72.20
10133;DHT22;5106;50.926;7.080;2023-07-09T15:34:38;26.60;71.50
10133;DHT22;5106;50.926;7.080;2023-07-09T15:37:13;26.50;71.40
10133;DHT22;5106;50.926;7.080;2023-07-09T15:39:40;26.50;71.60
10133;DHT22;5106;50.926;7.080;2023-07-09T15:42:13;26.60;71.60
10133;DHT22;5106;50.926;7.080;2023-07-09T15:44:40;26.60;71.60
10133;DHT22;5106;50.926;7.080;2023-07-09T15:47:08;26.70;71.70
10133;DHT22;5106;50.926;7.080;2023-07-09T15:49:40;26.80;72.10
10133;DHT22;5106;50.926;7.080;2023-07-09T15:52:08;26.70;72.10
10133;DHT22;5106;50.926;7.080;2023-07-09T15:54:33;26.60;72.30
10133;DHT22;5106;50.926;7.080;2023-07-09T15:56:59;26.60;72.50
10133;DHT22;5106;50.926;7.080;2023-07-09T15:59:35;26.50;72.80
10133;DHT22;5106;50.926;7.080;2023-07-09T16:02:08;26.50;72.50
10133;DHT22;5106;50.926;7.080;2023-07-09T16:04:34;26.50;72.90
10133;DHT22;5106;50.926;7.080;2023-07-09T16:06:59;26.40;72.70
10133;DHT22;5106;50.926;7.080;2023-07-09T16:09:25;26.40;72.80
10133;DHT22;5106;50.926;7.080;2023-07-09T16:11:52;26.40;73.00
10133;DHT22;5106;50.926;7.080;2023-07-09T16:14:26;26.30;73.10
10133;DHT22;5106;50.926;7.080;2023-07-09T16:16:53;26.20;73.30
10133;DHT22;5106;50.926;7.080;2023-07-09T16:19:21;26.20;73.20
10133;DHT22;5106;50.926;7.080;2023-07-09T16:21:48;26.20;73.30
10133;DHT22;5106;50.926;7.080;2023-07-09T16:24:24;26.20;73.20
10133;DHT22;5106;50.926;7.080;2023-07-09T16:26:50;26.20;73.20
10133;DHT22;5106;50.926;7.080;2023-07-09T16:29:37;26.20;73.30
10133;DHT22;5106;50.926;7.080;2023-07-09T16:32:03;26.20;73.40